Time;durP1;ratioP1;P1;durP2;ratioP2;P2;SDS_P1;SDS_P2;PMS_P1;PMS_P2;Temp;Humidity;BMP_temperature;BMP_pressure;BME280_temperature;BME280_humidity;BME280_pressure;Samples;Min_cycle;Max_cycle;Signal;HPM_P1;HPM_P2
2022/11/02 00:01:39;;;;;;;6.45;3.20;;;;;;;11.99;50.97;95404.91;5073674;28;20020;-76
2022/11/02 00:04:04;;;;;;;10.93;3.72;;;;;;;12.29;50.91;95451.16;5072356;28;20032;-76
2022/11/02 00:06:30;;;;;;;5.95;3.47;;;;;;;12.29;50.97;95451.16;5072236;28;20051;-76
2022/11/02 00:08:55;;;;;;;11.25;3.50;;;;;;;12.34;50.77;95450.75;5073275;28;20036;-76
2022/11/02 00:11:21;;;;;;;10.80;3.80;;;;;;;12.22;50.92;95452.56;5072224;28;20025;-76
2022/11/02 00:13:46;;;;;;;12.35;4.03;;;;;;;12.22;50.94;95457.78;5055534;28;20044;-76
2022/11/02 00:16:13;;;;;;;10.23;3.75;;;;;;;12.14;51.33;95455.78;5073336;28;20039;-76
2022/11/02 00:18:39;;;;;;;15.90;5.55;;;;;;;12.16;52.67;95463.47;5089002;28;20506;-76
2022/11/02 00:21:04;;;;;;;11.40;4.38;;;;;;;12.06;52.76;95443.38;5055477;28;20116;-76
2022/11/02 00:23:30;;;;;;;12.52;4.75;;;;;;;12.19;52.87;95468.44;5073588;28;20028;-76
2022/11/02 00:25:55;;;;;;;8.35;4.57;;;;;;;12.06;53.03;95471.19;5071901;28;20036;-76
2022/11/02 00:28:20;;;;;;;10.88;4.78;;;;;;;12.01;53.21;95461.13;5072014;28;20505;-76
2022/11/02 00:30:46;;;;;;;14.93;5.13;;;;;;;12.00;53.48;95446.44;5071892;28;20418;-76
2022/11/02 00:33:11;;;;;;;11.25;5.18;;;;;;;11.95;53.67;95463.38;5055901;28;20033;-76
2022/11/02 00:35:37;;;;;;;8.55;4.40;;;;;;;11.99;53.53;95460.41;5053036;28;20032;-76
2022/11/02 00:38:03;;;;;;;9.57;3.83;;;;;;;11.73;53.30;95446.81;5051883;28;20043;-76
2022/11/02 00:40:28;;;;;;;9.35;3.92;;;;;;;11.59;53.26;95445.25;5051700;28;20411;-76
2022/11/02 00:42:54;;;;;;;12.80;4.43;;;;;;;11.39;53.44;95451.16;5051721;28;20467;-76
2022/11/02 00:45:21;;;;;;;8.18;3.65;;;;;;;11.37;53.78;95458.25;5034958;28;20041;-76
2022/11/02 00:47:46;;;;;;;9.52;4.63;;;;;;;11.33;54.26;95452.44;5035375;28;20029;-76
2022/11/02 00:50:12;;;;;;;9.02;4.40;;;;;;;11.17;54.32;95439.78;5052752;28;20422;-76
2022/11/02 00:52:39;;;;;;;11.77;5.18;;;;;;;11.15;55.37;95456.44;5051939;28;20024;-76
2022/11/02 00:55:08;;;;;;;12.48;4.38;;;;;;;11.07;55.68;95456.19;5051454;28;20032;-76
2022/11/02 00:57:34;;;;;;;8.85;4.50;;;;;;;11.07;55.89;95448.38;5051394;28;20544;-76
2022/11/02 00:59:59;;;;;;;10.45;4.90;;;;;;;11.03;56.39;95441.75;5052575;28;20029;-76
2022/11/02 01:02:25;;;;;;;9.32;4.55;;;;;;;10.99;56.21;95445.53;5034706;28;20158;-76
2022/11/02 01:04:51;;;;;;;9.20;4.18;;;;;;;10.94;55.96;95445.84;5052459;28;20033;-76
2022/11/02 01:07:16;;;;;;;8.32;4.13;;;;;;;10.82;55.42;95447.59;5051223;28;20037;-76
2022/11/02 01:09:42;;;;;;;8.70;3.88;;;;;;;10.65;55.90;95454.03;5051013;28;20053;-76
2022/11/02 01:12:07;;;;;;;8.35;3.90;;;;;;;10.73;55.64;95440.50;5051123;28;20039;-76
2022/11/02 01:14:32;;;;;;;10.85;4.90;;;;;;;10.54;56.63;95451.38;5034434;28;20040;-76
2022/11/02 01:16:58;;;;;;;10.48;4.07;;;;;;;10.50;56.98;95450.78;5046156;28;20063;-76
2022/11/02 01:19:24;;;;;;;8.00;3.78;;;;;;;10.46;56.54;95427.75;5017721;28;20548;-77
2022/11/02 01:21:49;;;;;;;7.95;3.33;;;;;;;10.58;56.42;95442.41;5050942;28;20086;-76
2022/11/02 01:24:15;;;;;;;7.80;3.40;;;;;;;10.35;56.82;95443.25;5050807;28;20033;-76
2022/11/02 01:26:40;;;;;;;7.95;3.80;;;;;;;10.47;56.53;95453.63;5051946;28;20069;-76
2022/11/02 01:29:06;;;;;;;9.85;3.28;;;;;;;10.45;56.27;95447.69;5051943;28;20033;-76
2022/11/02 01:31:31;;;;;;;10.90;3.80;;;;;;;10.50;56.35;95449.94;5054173;28;20017;-76
2022/11/02 01:33:57;;;;;;;12.35;3.70;;;;;;;10.43;56.66;95454.75;5071815;28;20518;-76
2022/11/02 01:36:22;;;;;;;9.90;3.72;;;;;;;10.30;56.95;95435.78;5086527;28;20177;-76
2022/11/02 01:38:48;;;;;;;8.27;3.50;;;;;;;10.36;56.69;95447.50;5070819;28;20036;-76
2022/11/02 01:41:13;;;;;;;5.53;3.28;;;;;;;10.44;56.74;95448.63;5071588;28;20032;-76
2022/11/02 01:43:43;;;;;;;8.20;3.50;;;;;;;10.48;56.65;95441.44;5070415;28;20033;-76
2022/11/02 01:46:11;;;;;;;7.05;3.70;;;;;;;10.58;56.09;95441.59;5053931;28;20445;-76
2022/11/02 01:48:46;;;;;;;9.95;3.95;;;;;;;10.46;56.21;95438.13;5071984;28;20036;-76
2022/11/02 01:51:27;;;;;;;11.00;4.90;;;;;;;10.31;57.50;95428.81;5038066;28;20037;-76
2022/11/02 01:53:53;;;;;;;7.07;4.10;;;;;;;10.38;57.57;95437.84;5055173;28;20086;-76
2022/11/02 01:56:20;;;;;;;15.10;4.57;;;;;;;10.25;57.59;95428.31;5036856;28;20515;-76
2022/11/02 01:58:48;;;;;;;9.60;4.10;;;;;;;10.27;57.50;95415.25;5053659;28;20108;-76
2022/11/02 02:01:13;;;;;;;10.27;4.00;;;;;;;10.40;57.28;95434.19;5053712;28;20059;-76
2022/11/02 02:03:38;;;;;;;9.63;4.30;;;;;;;10.31;57.09;95428.81;5070041;28;20482;-76
2022/11/02 02:06:06;;;;;;;7.93;4.18;;;;;;;10.34;57.13;95439.03;5053371;28;20059;-76
2022/11/02 02:08:32;;;;;;;9.48;3.60;;;;;;;10.38;57.16;95427.47;5053612;28;20452;-76
2022/11/02 02:10:57;;;;;;;11.80;3.55;;;;;;;10.40;57.27;95435.97;5070160;28;20052;-76
2022/11/02 02:13:23;;;;;;;9.32;4.13;;;;;;;10.33;57.36;95437.34;5071498;28;20051;-76
2022/11/02 02:16:10;;;;;;;10.27;6.07;;;;;;;10.31;57.87;95440.06;5069893;28;20173;-76
2022/11/02 02:18:43;;;;;;;9.95;4.90;;;;;;;10.31;57.96;95428.81;5069991;28;20074;-76
2022/11/02 02:21:30;;;;;;;8.63;4.35;;;;;;;10.26;57.68;95429.97;5037307;28;20029;-76
2022/11/02 02:24:03;;;;;;;9.32;4.25;;;;;;;10.19;57.70;95425.31;5069890;28;20043;-76
2022/11/02 02:26:52;;;;;;;13.15;4.75;;;;;;;10.19;57.71;95435.69;5069618;28;20052;-76
2022/11/02 02:29:58;;;;;;;12.23;4.78;;;;;;;10.04;57.93;95415.09;5069793;28;20471;-76
2022/11/02 02:32:36;;;;;;;11.23;4.03;;;;;;;10.00;58.23;95420.59;5054112;28;20522;-76
2022/11/02 02:35:20;;;;;;;10.60;4.50;;;;;;;9.99;58.08;95418.97;5070945;28;20418;-76
2022/11/02 02:38:02;;;;;;;9.85;4.00;;;;;;;9.94;58.44;95423.63;5069712;28;20086;-76
2022/11/02 02:40:38;;;;;;;8.18;3.88;;;;;;;9.86;58.08;95421.56;5053875;28;20036;-76
2022/11/02 02:43:25;;;;;;;11.00;4.10;;;;;;;9.78;58.75;95423.91;5069475;28;20035;-76
2022/11/02 02:45:55;;;;;;;7.32;4.03;;;;;;;9.77;58.34;95432.59;5070736;28;20490;-76
2022/11/02 02:48:21;;;;;;;8.27;4.20;;;;;;;9.56;59.15;95427.16;5069599;28;20402;-76
2022/11/02 02:51:07;;;;;;;9.50;4.20;;;;;;;9.40;59.59;95423.00;5036302;28;20115;-76
2022/11/02 02:53:43;;;;;;;8.82;3.95;;;;;;;9.28;59.49;95418.69;5039050;28;20044;-76
2022/11/02 02:56:09;;;;;;;9.90;4.25;;;;;;;9.28;59.48;95423.03;5054235;28;20025;-76
2022/11/02 02:58:43;;;;;;;6.72;3.95;;;;;;;9.26;59.42;95423.13;5052773;28;20340;-76
2022/11/02 03:01:10;;;;;;;8.88;4.32;;;;;;;9.28;59.44;95423.03;5053352;28;20035;-76
2022/11/02 03:03:36;;;;;;;8.05;4.00;;;;;;;9.12;59.46;95413.69;5052781;28;20027;-76
2022/11/02 03:06:18;;;;;;;10.02;4.50;;;;;;;9.09;59.98;95415.66;5052578;28;20037;-76
2022/11/02 03:08:48;;;;;;;8.52;4.10;;;;;;;8.98;60.36;95420.75;5069280;28;20035;-76
2022/11/02 03:11:17;;;;;;;6.72;3.78;;;;;;;9.05;60.28;95427.16;5052771;28;20048;-76
2022/11/02 03:14:06;;;;;;;10.75;3.95;;;;;;;8.98;60.27;95426.75;5070434;28;20056;-76
2022/11/02 03:17:01;;;;;;;9.88;4.25;;;;;;;9.04;60.19;95430.69;5073011;28;20033;-76
2022/11/02 03:19:37;;;;;;;11.50;3.92;;;;;;;8.91;60.65;95431.53;5072743;28;20041;-76
2022/11/02 03:22:11;;;;;;;11.63;3.67;;;;;;;8.86;60.88;95428.41;5073297;28;20035;-76
2022/11/02 03:25:16;;;;;;;10.63;4.53;;;;;;;8.87;60.73;95437.00;5056662;28;20044;-76
2022/11/02 03:27:55;;;;;;;12.30;4.55;;;;;;;8.74;61.06;95436.97;5073657;28;20516;-76
2022/11/02 03:30:21;;;;;;;11.32;4.45;;;;;;;8.66;60.90;95436.63;5074170;28;20040;-76
2022/11/02 03:33:11;;;;;;;12.23;3.72;;;;;;;8.66;61.02;95440.09;5042470;28;20414;-76
2022/11/02 03:36:12;;;;;;;8.55;3.60;;;;;;;8.58;61.39;95439.75;5054130;28;20108;-75
2022/11/02 03:38:44;;;;;;;10.40;3.72;;;;;;;8.54;61.71;95434.84;5054505;28;20519;-76
2022/11/02 03:41:10;;;;;;;10.40;4.03;;;;;;;8.56;61.90;95433.84;5036199;28;20068;-76
2022/11/02 03:43:35;;;;;;;8.93;3.58;;;;;;;8.56;62.02;95433.00;5052895;28;20037;-76
2022/11/02 03:46:01;;;;;;;9.10;3.92;;;;;;;8.41;62.30;95427.03;5052621;28;20060;-76
2022/11/02 03:48:29;;;;;;;10.73;4.60;;;;;;;8.34;62.66;95426.59;5052746;28;20033;-76
2022/11/02 03:50:54;;;;;;;7.20;3.90;;;;;;;8.24;62.27;95415.16;5052563;28;20414;-75
2022/11/02 03:53:40;;;;;;;7.97;3.60;;;;;;;8.25;62.02;95427.19;5052678;28;20025;-76
2022/11/02 03:56:07;;;;;;;8.80;4.00;;;;;;;8.22;61.74;95438.56;5053090;28;20040;-76
2022/11/02 03:58:34;;;;;;;15.90;4.72;;;;;;;7.93;63.05;95429.19;5052671;28;20032;-76
2022/11/02 04:01:02;;;;;;;12.82;4.88;;;;;;;7.99;63.13;95432.22;5052425;28;20484;-76
2022/11/02 04:03:28;;;;;;;16.73;5.28;;;;;;;8.09;63.83;95431.66;5052502;28;20037;-76
2022/11/02 04:05:53;;;;;;;10.13;5.38;;;;;;;8.02;64.11;95426.88;5052217;28;20404;-76
2022/11/02 04:08:22;;;;;;;13.35;5.38;;;;;;;8.07;64.37;95440.34;5052430;28;20041;-76
2022/11/02 04:16:15;;;;;;;13.07;4.53;;;;;;;8.19;63.94;95428.41;5058358;28;20046;-75
2022/11/02 04:21:25;;;;;;;9.27;3.95;;;;;;;7.99;64.54;95419.28;5072220;28;20031;-76
2022/11/02 04:26:34;;;;;;;7.50;3.38;;;;;;;7.88;63.84;95420.91;5071808;28;20032;-75
2022/11/02 04:29:00;;;;;;;6.38;4.13;;;;;;;7.83;63.70;95416.84;5055238;28;20037;-76
2022/11/02 04:31:25;;;;;;;8.82;4.22;;;;;;;7.76;63.55;95406.97;5038433;28;20403;-76
2022/11/02 04:33:51;;;;;;;8.07;4.18;;;;;;;7.82;63.47;95425.53;5072978;28;20035;-75
2022/11/02 04:36:16;;;;;;;7.93;4.03;;;;;;;7.73;63.72;95414.94;5071564;28;20024;-75
2022/11/02 04:38:42;;;;;;;10.50;4.72;;;;;;;7.81;63.55;95428.22;5071739;28;20036;-75
2022/11/02 04:44:00;;;;;;;9.60;4.22;;;;;;;7.56;64.96;95426.31;5058195;28;20101;-75
2022/11/02 04:46:28;;;;;;;8.63;3.65;;;;;;;7.67;64.73;95430.84;5054780;28;20456;-76
2022/11/02 04:48:53;;;;;;;11.77;4.88;;;;;;;7.67;65.07;95431.66;5071927;28;20541;-75
2022/11/02 04:51:22;;;;;;;11.65;5.10;;;;;;;7.50;65.73;95432.69;5054774;28;20043;-75
2022/11/02 04:53:48;;;;;;;8.40;5.05;;;;;;;7.54;65.22;95439.31;5071459;28;20116;-75
2022/11/02 04:56:13;;;;;;;7.85;4.60;;;;;;;7.50;65.14;95419.75;5071398;28;20406;-75
2022/11/02 04:58:39;;;;;;;11.88;4.80;;;;;;;7.65;65.21;95443.00;5038227;28;20028;-75
2022/11/02 05:01:10;;;;;;;11.00;5.47;;;;;;;7.62;65.71;95436.28;5071319;28;20392;-75
2022/11/02 05:03:36;;;;;;;11.38;5.28;;;;;;;7.51;66.14;95424.00;5055166;28;20093;-76
2022/11/02 05:06:01;;;;;;;10.98;6.15;;;;;;;7.50;66.41;95437.84;5072396;28;20036;-75
2022/11/02 05:08:27;;;;;;;11.50;4.75;;;;;;;7.53;66.00;95439.44;5053482;28;20029;-75
2022/11/02 05:10:56;;;;;;;15.52;5.28;;;;;;;7.60;65.92;95433.81;5056246;28;20049;-75
2022/11/02 05:13:25;;;;;;;11.88;5.10;;;;;;;7.63;66.58;95440.50;5053806;28;20032;-75
2022/11/02 05:15:50;;;;;;;12.65;5.63;;;;;;;7.66;66.30;95450.69;5065783;28;20028;-75
2022/11/02 05:18:16;;;;;;;9.48;5.07;;;;;;;7.65;66.13;95443.00;5072215;28;20433;-77
2022/11/02 05:20:42;;;;;;;15.98;8.60;;;;;;;7.65;66.70;95453.38;5042641;28;20041;-76
2022/11/02 05:23:07;;;;;;;10.65;5.40;;;;;;;7.69;66.41;95460.84;5050764;28;20028;-76
2022/11/02 05:25:33;;;;;;;10.25;5.05;;;;;;;7.71;66.59;95456.38;5054144;28;20029;-74
2022/11/02 05:27:58;;;;;;;10.48;4.70;;;;;;;7.77;66.64;95456.03;5061018;28;20456;-75
2022/11/02 05:30:24;;;;;;;9.32;4.43;;;;;;;7.86;66.47;95464.97;5063667;28;20032;-75
2022/11/02 05:32:49;;;;;;;6.90;4.80;;;;;;;7.83;66.51;95454.81;5069046;28;20474;-75
2022/11/02 05:35:14;;;;;;;9.30;4.60;;;;;;;8.00;65.87;95453.78;5068960;28;20102;-75
2022/11/02 05:37:40;;;;;;;11.18;5.25;;;;;;;7.91;66.15;95459.50;5068031;28;20029;-75
2022/11/02 05:40:07;;;;;;;8.82;4.78;;;;;;;7.92;66.21;95467.19;5048988;28;20030;-74
2022/11/02 05:42:33;;;;;;;10.90;5.47;;;;;;;7.92;66.52;95462.00;5048460;28;20037;-75
2022/11/02 05:44:58;;;;;;;12.68;4.90;;;;;;;8.01;66.46;95471.78;5031975;28;20025;-75
2022/11/02 05:47:24;;;;;;;11.60;5.53;;;;;;;8.00;66.43;95480.47;5052897;28;20571;-74
2022/11/02 05:49:49;;;;;;;10.02;4.95;;;;;;;8.06;66.25;95481.84;5068420;28;20032;-75
2022/11/02 05:52:15;;;;;;;8.82;5.30;;;;;;;8.15;66.29;95481.28;5069638;28;20044;-75
2022/11/02 05:54:40;;;;;;;11.93;5.43;;;;;;;8.12;66.34;95470.28;5046684;28;20036;-75
2022/11/02 05:57:05;;;;;;;8.98;4.35;;;;;;;8.29;65.99;95485.59;5056534;28;20029;-76
2022/11/02 05:59:31;;;;;;;7.18;3.97;;;;;;;8.34;65.79;95482.72;5061014;28;20021;-76
2022/11/02 06:01:57;;;;;;;20.55;7.18;;;;;;;8.29;65.72;95481.22;5064259;28;20086;-76
2022/11/02 06:04:22;;;;;;;8.43;4.28;;;;;;;8.35;65.83;95490.38;5069888;28;20490;-76
2022/11/02 06:06:47;;;;;;;10.13;4.53;;;;;;;8.44;65.42;95500.19;5050037;28;20490;-76
2022/11/02 06:09:13;;;;;;;7.22;4.30;;;;;;;8.48;65.32;95509.41;5051042;28;20052;-76
2022/11/02 06:11:38;;;;;;;10.07;4.38;;;;;;;8.48;65.41;95504.22;5032693;28;20036;-76
2022/11/02 06:14:04;;;;;;;9.20;3.90;;;;;;;8.50;65.14;95510.16;5067375;28;20111;-76
2022/11/02 06:16:30;;;;;;;6.50;4.13;;;;;;;8.56;65.14;95505.53;5051424;28;20036;-76
2022/11/02 06:18:55;;;;;;;7.45;3.92;;;;;;;8.62;64.76;95515.47;5067855;28;20028;-76
2022/11/02 06:21:21;;;;;;;8.85;4.05;;;;;;;8.63;64.59;95509.34;5069179;28;20047;-76
2022/11/02 06:23:47;;;;;;;9.45;3.90;;;;;;;8.60;64.56;95518.16;5050562;28;20044;-76
2022/11/02 06:26:12;;;;;;;9.75;4.32;;;;;;;8.59;64.49;95500.97;5067908;28;20031;-76
2022/11/02 06:28:38;;;;;;;9.80;4.13;;;;;;;8.76;64.50;95510.25;5069853;28;20449;-76
2022/11/02 06:31:03;;;;;;;7.43;4.28;;;;;;;8.70;64.46;95500.28;5069909;28;20433;-76
2022/11/02 06:33:29;;;;;;;9.98;3.97;;;;;;;8.75;64.12;95513.78;5069876;28;20032;-76
2022/11/02 06:35:54;;;;;;;10.90;4.47;;;;;;;8.71;64.72;95514.88;5053058;28;20028;-76
2022/11/02 06:38:20;;;;;;;12.50;4.40;;;;;;;8.79;64.66;95515.22;5035877;28;20036;-75
2022/11/02 06:41:05;;;;;;;8.57;4.43;;;;;;;8.90;64.25;95510.16;5069221;28;20107;-75
2022/11/02 06:43:32;;;;;;;9.25;4.57;;;;;;;8.75;64.79;95520.69;5065517;28;20032;-75
2022/11/02 06:45:58;;;;;;;10.40;4.85;;;;;;;9.00;64.32;95512.16;5048293;28;20025;-76
2022/11/02 06:48:24;;;;;;;8.95;4.93;;;;;;;9.38;63.46;95515.63;5046215;28;20031;-76
2022/11/02 06:50:49;;;;;;;12.00;6.30;;;;;;;9.52;63.10;95513.88;5057899;28;20033;-77
2022/11/02 06:53:15;;;;;;;9.15;5.60;;;;;;;9.76;62.69;95514.81;5050345;28;20048;-77
2022/11/02 06:55:40;;;;;;;9.73;5.05;;;;;;;10.12;61.67;95509.78;5068216;28;20580;-77
2022/11/02 06:58:06;;;;;;;10.60;5.57;;;;;;;10.23;61.01;95496.88;5069349;28;20047;-77
2022/11/02 07:00:31;;;;;;;11.23;5.28;;;;;;;10.38;60.82;95497.59;5043780;28;20033;-77
2022/11/02 07:03:08;;;;;;;14.15;5.38;;;;;;;10.68;59.99;95503.19;5032965;28;20059;-77
2022/11/02 07:05:34;;;;;;;10.52;5.68;;;;;;;10.99;59.21;95493.16;5049441;28;20029;-77
2022/11/02 07:07:59;;;;;;;16.58;6.43;;;;;;;11.63;57.45;95501.31;5050851;28;20033;-77
2022/11/02 07:10:25;;;;;;;10.18;6.47;;;;;;;12.17;55.55;95478.16;5050562;28;20525;-77
2022/11/02 07:12:52;;;;;;;11.48;5.88;;;;;;;12.77;54.43;95497.69;5065060;28;20112;-77
2022/11/02 07:15:18;;;;;;;12.23;5.70;;;;;;;13.71;52.05;95496.03;5069148;28;20039;-77
2022/11/02 07:17:43;;;;;;;11.57;5.55;;;;;;;14.66;49.48;95493.06;5070771;28;20036;-77
2022/11/02 07:20:09;;;;;;;14.30;6.15;;;;;;;15.50;47.13;95482.03;5069210;28;20036;-78
2022/11/02 07:22:35;;;;;;;12.65;6.28;;;;;;;16.33;45.08;95484.81;5051750;28;20524;-78
2022/11/02 07:25:01;;;;;;;18.02;7.28;;;;;;;16.70;43.38;95453.25;5049153;28;20120;-78
2022/11/02 07:27:26;;;;;;;15.30;6.70;;;;;;;17.54;41.92;95482.69;5057996;28;20408;-78
2022/11/02 07:29:52;;;;;;;18.88;7.43;;;;;;;18.00;40.75;95485.97;5065763;28;20029;-78
2022/11/02 07:32:17;;;;;;;22.15;7.55;;;;;;;18.41;39.52;95457.19;5032466;28;20036;-78
2022/11/02 07:34:42;;;;;;;17.40;7.43;;;;;;;19.08;38.39;95471.16;5049072;28;20055;-78
2022/11/02 07:37:08;;;;;;;13.88;6.80;;;;;;;19.67;37.54;95470.19;5050752;28;20491;-78
2022/11/02 07:39:33;;;;;;;21.25;6.78;;;;;;;20.22;36.67;95458.84;5045492;28;20032;-78
2022/11/02 07:41:59;;;;;;;23.67;8.70;;;;;;;20.74;35.79;95455.66;5070432;28;20418;-78
2022/11/02 07:44:24;;;;;;;22.80;7.03;;;;;;;21.06;35.11;95453.78;5068949;28;20059;-78
2022/11/02 07:46:50;;;;;;;19.42;6.97;;;;;;;21.15;34.92;95465.94;5035864;28;20035;-78
2022/11/02 07:49:15;;;;;;;18.67;7.80;;;;;;;20.15;35.96;95448.16;5070122;28;20406;-78
2022/11/02 07:51:41;;;;;;;21.75;7.53;;;;;;;19.58;37.36;95464.06;5069434;28;20033;-77
2022/11/02 07:54:09;;;;;;;15.98;7.47;;;;;;;19.22;38.32;95446.00;5068896;28;20037;-77
2022/11/02 07:56:35;;;;;;;12.15;6.93;;;;;;;18.87;39.15;95465.56;5052758;28;20021;-78
2022/11/02 07:59:00;;;;;;;25.80;6.78;;;;;;;18.68;39.69;95467.47;5065626;28;20086;-77
2022/11/02 08:01:25;;;;;;;16.67;6.93;;;;;;;18.52;40.21;95464.78;5065326;28;20032;-76
2022/11/02 08:03:51;;;;;;;15.50;6.85;;;;;;;18.27;40.41;95462.06;5056384;28;20027;-76
2022/11/02 08:06:17;;;;;;;17.27;6.95;;;;;;;18.20;40.78;95463.69;5067027;28;20036;-76
2022/11/02 08:08:42;;;;;;;24.13;7.25;;;;;;;18.16;40.79;95458.91;5060926;28;20029;-76
2022/11/02 08:11:08;;;;;;;16.08;8.43;;;;;;;17.85;41.57;95457.59;5071846;28;20048;-76
2022/11/02 08:13:33;;;;;;;20.35;9.98;;;;;;;17.52;42.34;95445.22;5064517;28;20075;-77
2022/11/02 08:15:59;;;;;;;19.98;10.13;;;;;;;17.68;41.97;95450.59;5034909;28;20040;-76
2022/11/02 08:18:25;;;;;;;17.52;8.10;;;;;;;17.71;41.88;95445.00;5049867;28;20040;-77
2022/11/02 08:20:51;;;;;;;22.90;8.38;;;;;;;17.69;41.95;95447.00;5050094;28;20025;-77
2022/11/02 08:23:17;;;;;;;15.52;7.75;;;;;;;17.58;42.21;95442.00;5051795;28;20033;-77
2022/11/02 08:25:44;;;;;;;21.42;9.23;;;;;;;17.43;42.54;95442.53;5033579;28;20053;-77
2022/11/02 08:28:18;;;;;;;19.65;8.13;;;;;;;17.61;42.22;95447.75;5050490;28;20170;-77
2022/11/02 08:30:43;;;;;;;14.43;7.00;;;;;;;17.77;41.13;95439.13;5034350;28;20025;-77
2022/11/02 08:33:12;;;;;;;13.48;7.15;;;;;;;17.85;41.29;95441.84;5035055;28;20422;-77
2022/11/02 08:35:38;;;;;;;12.90;7.00;;;;;;;17.82;41.90;95431.66;5052008;28;20033;-77
2022/11/02 08:38:03;;;;;;;13.35;6.70;;;;;;;17.93;40.99;95430.56;5052897;28;20113;-77
2022/11/02 08:40:29;;;;;;;18.35;7.15;;;;;;;17.94;40.90;95437.47;5034923;28;20044;-77
2022/11/02 08:42:58;;;;;;;21.23;7.32;;;;;;;17.95;42.01;95433.84;5053193;28;20033;-77
2022/11/02 08:45:23;;;;;;;20.17;7.25;;;;;;;18.05;41.18;95434.56;5053042;28;20103;-77
2022/11/02 08:47:49;;;;;;;22.38;6.43;;;;;;;18.11;40.85;95432.25;5053038;28;20578;-77
2022/11/02 08:50:14;;;;;;;11.60;6.43;;;;;;;18.09;40.17;95421.91;5034969;28;20036;-77
2022/11/02 08:52:40;;;;;;;17.23;6.95;;;;;;;18.05;40.18;95420.56;5052937;28;20048;-77
2022/11/02 08:55:06;;;;;;;15.98;6.88;;;;;;;18.19;39.87;95416.50;5052908;28;20143;-78
2022/11/02 08:57:31;;;;;;;12.80;6.68;;;;;;;18.27;39.87;95425.25;5052748;28;20494;-77
2022/11/02 08:59:56;;;;;;;16.98;6.85;;;;;;;18.00;39.95;95415.00;5051402;28;20078;-77
2022/11/02 09:02:22;;;;;;;16.98;6.30;;;;;;;18.10;40.22;95410.41;5051262;28;20403;-77
2022/11/02 09:04:47;;;;;;;11.07;5.78;;;;;;;18.24;39.87;95414.25;5034760;28;20052;-77
2022/11/02 09:07:13;;;;;;;15.02;5.85;;;;;;;18.38;39.25;95411.00;5051265;28;20443;-77
2022/11/02 09:09:38;;;;;;;16.42;5.80;;;;;;;18.48;38.92;95408.22;5052210;28;20056;-77
2022/11/02 09:12:04;;;;;;;17.58;5.70;;;;;;;18.41;39.42;95409.84;5050600;28;20037;-77
2022/11/02 09:14:29;;;;;;;15.57;6.05;;;;;;;18.43;39.55;95408.69;5050822;28;20040;-77
2022/11/02 09:16:55;;;;;;;16.15;5.80;;;;;;;18.28;39.37;95389.28;5051201;28;20041;-77
2022/11/02 09:19:20;;;;;;;12.50;5.53;;;;;;;18.19;39.67;95374.44;5034373;28;20032;-77
2022/11/02 09:21:48;;;;;;;17.25;5.40;;;;;;;18.56;39.67;95397.72;5034387;28;20066;-77
2022/11/02 09:24:14;;;;;;;14.93;5.72;;;;;;;18.72;39.22;95395.13;5051092;28;20064;-77
2022/11/02 09:26:39;;;;;;;18.25;6.28;;;;;;;18.81;38.40;95380.19;5034275;28;20451;-78
2022/11/02 09:29:05;;;;;;;21.27;6.07;;;;;;;18.84;39.00;95394.81;5050813;28;20556;-77
2022/11/02 09:31:30;;;;;;;16.30;5.25;;;;;;;18.94;38.86;95385.78;5052109;28;20033;-77
2022/11/02 09:33:55;;;;;;;11.38;5.40;;;;;;;19.01;38.64;95385.13;5052002;28;20036;-77
2022/11/02 09:36:21;;;;;;;13.75;5.85;;;;;;;19.08;38.71;95375.56;5050665;28;20044;-77
2022/11/02 09:38:46;;;;;;;13.07;5.25;;;;;;;19.14;38.64;95370.47;5050587;28;20024;-77
2022/11/02 09:41:12;;;;;;;12.10;5.30;;;;;;;19.20;38.48;95369.81;5050633;28;20024;-77
2022/11/02 09:43:54;;;;;;;16.77;5.30;;;;;;;19.14;38.16;95344.13;5051732;28;20684;-77
2022/11/02 09:46:25;;;;;;;14.48;5.57;;;;;;;19.32;37.86;95356.28;5050514;28;20033;-77
2022/11/02 09:48:59;;;;;;;17.92;5.88;;;;;;;19.34;37.96;95346.41;5050492;28;20122;-77
2022/11/02 09:51:37;;;;;;;14.60;5.40;;;;;;;19.47;38.02;95359.84;5033877;28;20033;-77
2022/11/02 09:54:14;;;;;;;20.20;5.55;;;;;;;19.51;38.14;95355.09;5050245;28;20498;-77
2022/11/02 09:56:40;;;;;;;13.45;5.38;;;;;;;19.50;37.39;95333.19;5066939;28;20028;-77
2022/11/02 09:59:14;;;;;;;12.05;5.38;;;;;;;19.51;37.40;95334.84;5033644;28;20498;-77
2022/11/02 10:02:09;;;;;;;17.75;5.65;;;;;;;19.78;36.17;95352.06;5033797;28;20056;-77
2022/11/02 10:04:53;;;;;;;13.93;5.65;;;;;;;19.70;37.01;95349.47;5050788;28;20045;-77
2022/11/02 10:07:28;;;;;;;12.68;5.85;;;;;;;19.83;37.77;95341.00;5066842;28;20517;-77
2022/11/02 10:10:00;;;;;;;15.52;5.82;;;;;;;19.92;37.56;95337.34;5051121;28;20044;-77
2022/11/02 10:12:44;;;;;;;16.05;6.80;;;;;;;19.93;37.40;95333.72;5033825;28;20041;-77
2022/11/02 10:15:17;;;;;;;12.57;5.78;;;;;;;20.03;36.71;95334.31;5050184;28;20082;-77
2022/11/02 10:17:42;;;;;;;15.10;5.97;;;;;;;20.07;36.70;95319.78;5049964;28;20029;-78
2022/11/02 10:20:23;;;;;;;18.05;5.63;;;;;;;20.22;36.72;95319.84;5033259;28;20087;-77
2022/11/02 10:22:49;;;;;;;27.65;10.98;;;;;;;20.14;35.73;95324.38;5034431;28;20033;-77
2022/11/02 10:25:14;;;;;;;22.98;8.23;;;;;;;20.25;35.97;95316.06;5049683;28;20033;-77
2022/11/02 10:27:40;;;;;;;20.05;9.05;;;;;;;20.26;35.67;95299.25;5033206;28;20060;-77
2022/11/02 10:30:17;;;;;;;22.52;8.20;;;;;;;20.58;35.75;95310.59;5049638;28;20025;-78
2022/11/02 10:32:44;;;;;;;15.30;6.78;;;;;;;20.67;35.79;95310.38;5033287;28;20055;-78
2022/11/02 10:35:26;;;;;;;23.15;8.77;;;;;;;20.59;34.71;95307.78;5049683;28;20033;-77
2022/11/02 10:38:25;;;;;;;16.65;6.72;;;;;;;20.84;35.18;95295.22;5049795;28;20043;-78
2022/11/02 10:41:02;;;;;;;30.33;7.40;;;;;;;20.77;34.28;95289.00;5050869;28;20403;-77
2022/11/02 10:43:52;;;;;;;17.23;7.53;;;;;;;20.98;35.31;95286.50;5051200;28;20166;-77
2022/11/02 10:46:20;;;;;;;19.50;7.88;;;;;;;21.18;34.80;95291.25;5034103;28;20036;-77
2022/11/02 10:49:07;;;;;;;20.15;7.30;;;;;;;21.18;33.39;95281.50;5051021;28;20043;-77
2022/11/02 10:51:32;;;;;;;18.38;6.90;;;;;;;21.22;34.08;95271.38;5050750;28;20041;-77
2022/11/02 10:53:58;;;;;;;18.77;7.72;;;;;;;21.42;33.93;95277.81;5033042;28;20025;-77
2022/11/02 10:56:31;;;;;;;19.65;8.35;;;;;;;21.49;33.42;95277.06;5049384;28;20024;-78
2022/11/02 10:59:02;;;;;;;27.15;8.27;;;;;;;21.50;33.38;95271.59;5032961;28;20063;-77
2022/11/02 11:01:29;;;;;;;19.02;8.10;;;;;;;21.72;33.18;95269.03;5032955;28;20029;-78
2022/11/02 11:03:56;;;;;;;25.08;8.07;;;;;;;21.74;33.23;95265.19;5049315;28;20111;-77
2022/11/02 11:06:23;;;;;;;17.48;7.65;;;;;;;21.88;33.43;95257.44;5032687;28;20082;-78
2022/11/02 11:08:50;;;;;;;19.58;6.85;;;;;;;21.98;32.91;95257.94;5032924;28;20407;-78
2022/11/02 11:11:48;;;;;;;23.20;7.60;;;;;;;22.06;32.75;95253.38;5049185;28;20044;-78
2022/11/02 11:14:17;;;;;;;19.90;6.82;;;;;;;22.09;32.64;95247.69;5049279;28;20523;-78
2022/11/02 11:16:44;;;;;;;17.30;6.70;;;;;;;22.11;32.17;95244.84;5032739;28;20075;-78
2022/11/02 11:19:28;;;;;;;23.92;7.03;;;;;;;22.06;32.10;95239.28;5049170;28;20118;-78
2022/11/02 11:21:53;;;;;;;17.80;6.97;;;;;;;22.36;32.13;95231.28;5049886;28;20064;-78
2022/11/02 11:24:21;;;;;;;14.32;6.32;;;;;;;22.45;31.61;95224.84;5032777;28;20433;-78
2022/11/02 11:27:12;;;;;;;24.08;7.60;;;;;;;22.59;31.66;95231.88;5049132;28;20116;-78
2022/11/02 11:29:39;;;;;;;15.50;6.38;;;;;;;22.46;31.24;95215.91;5065787;28;20033;-78
2022/11/02 11:32:12;;;;;;;19.48;7.10;;;;;;;22.64;31.77;95229.47;5032807;28;20052;-78
2022/11/02 11:34:38;;;;;;;25.05;8.02;;;;;;;22.56;31.07;95203.13;5049212;28;20033;-78
2022/11/02 11:37:05;;;;;;;24.90;7.07;;;;;;;22.63;30.58;95216.44;5035446;28;20028;-78
2022/11/02 11:39:30;;;;;;;17.73;7.25;;;;;;;22.49;30.70;95210.22;5052823;28;20048;-78
2022/11/02 11:41:56;;;;;;;18.83;7.55;;;;;;;22.79;31.38;95215.31;5036274;28;20049;-78
2022/11/02 11:44:21;;;;;;;15.15;6.78;;;;;;;22.85;30.59;95217.22;5052799;28;20033;-78
2022/11/02 11:46:48;;;;;;;18.00;7.30;;;;;;;22.96;30.55;95209.59;5052671;28;20040;-78
2022/11/02 11:49:25;;;;;;;25.33;8.50;;;;;;;22.94;30.30;95208.13;5036226;28;20029;-78
2022/11/02 11:51:52;;;;;;;26.95;7.28;;;;;;;23.09;30.42;95194.78;5036271;28;20041;-78
2022/11/02 11:54:28;;;;;;;20.75;7.20;;;;;;;23.19;29.78;95197.91;5036438;28;20032;-78